Novo Tiradentes, Brazil
Current Conditions -  °F | °C
As of 1:00 PM on Friday 31 Oct 2014 (Local Time) from SBCH Reporting Station
Few Clouds Few Clouds  
Wind Chill: 81°   Ceiling: Unl
Heat Index: 83°   Visibility: 6mi
Dew Point: 66°   Wind: 12mph
Humidity: 61%   Direction: 340°NNW
Pressure: 29.91"   Gusts: NA
Location:  27.56°S, 53.18°W
Report Text: SBCH 311500Z 34010KT 9999 FEW015 27/19 Q1013
Loading
Personal Weather Stations






























Interactive Weather Map
Tropical Storm Tracking
New forecast layout! Learn more

10-Day Weather Forecast

Advertisements
Track Severe Weather on mobile